Northwest Peak Scenic Area, Montana
Current Conditions -  °F | °C
As of 11:15 AM on Thursday 30 Oct 2014 (Local Time) from K65S Reporting Station
Overcast Overcast  
Wind Chill: 46°   Ceiling: 7000
Heat Index: 46°   Visibility: 10mi
Dew Point: 43°   Wind: 0mph
Humidity: 87%   Direction: NA
Pressure: 30.19"   Gusts: NA
Location:  48.95°N, 115.99°W
Report Text: K65S 301715Z AUTO 00000KT 10SM OVC070 08/06 A3019 RMK AO2
Loading
Personal Weather Stations






























Interactive Weather Map
Tropical Storm Tracking
New forecast layout! Learn more

10-Day Weather Forecast

Advertisements
Track Severe Weather on mobile